sensor_id;sensor_type;location;lat;lon;timestamp;noise_LAeq;noise_LA_min;noise_LA_max;noise_LA01;noise_LA95
1754;Laerm;58380;48.312;9.246;2024-02-16T08:06:51;51.63;39.55;78.91;;
1754;Laerm;58380;48.312;9.246;2024-02-16T08:09:52;45.23;35.88;58.83;;
1754;Laerm;58380;48.312;9.246;2024-02-16T08:12:52;46.90;35.58;58.96;;
1754;Laerm;58380;48.312;9.246;2024-02-16T08:15:53;48.00;38.20;62.41;;
1754;Laerm;58380;48.312;9.246;2024-02-16T08:18:53;59.92;40.35;87.20;;
1754;Laerm;58380;48.312;9.246;2024-02-16T08:21:54;51.89;39.72;78.64;;
1754;Laerm;58380;48.312;9.246;2024-02-16T08:24:54;47.20;38.01;58.71;;
1754;Laerm;58380;48.312;9.246;2024-02-16T08:27:56;52.07;39.95;65.85;;
1754;Laerm;58380;48.312;9.246;2024-02-16T08:30:56;45.99;37.38;60.26;;
1754;Laerm;58380;48.312;9.246;2024-02-16T08:33:57;46.45;37.96;55.65;;
1754;Laerm;58380;48.312;9.246;2024-02-16T08:36:57;54.37;38.12;80.05;;
1754;Laerm;58380;48.312;9.246;2024-02-16T08:39:58;50.58;41.85;79.60;;
1754;Laerm;58380;48.312;9.246;2024-02-16T08:42:58;50.98;42.70;78.25;;
1754;Laerm;58380;48.312;9.246;2024-02-16T08:46:01;49.92;41.28;74.83;;
1754;Laerm;58380;48.312;9.246;2024-02-16T08:49:02;50.76;40.90;76.48;;
1754;Laerm;58380;48.312;9.246;2024-02-16T08:52:05;49.01;41.83;59.85;;
1754;Laerm;58380;48.312;9.246;2024-02-16T08:55:07;47.19;41.48;60.53;;
1754;Laerm;58380;48.312;9.246;2024-02-16T08:58:08;48.01;40.19;66.13;;
1754;Laerm;58380;48.312;9.246;2024-02-16T09:01:08;47.21;39.74;63.00;;
1754;Laerm;58380;48.312;9.246;2024-02-16T09:04:09;49.62;40.64;79.10;;
1754;Laerm;58380;48.312;9.246;2024-02-16T09:07:10;46.14;40.75;58.25;;
1754;Laerm;58380;48.312;9.246;2024-02-16T09:10:11;47.09;40.45;66.22;;
1754;Laerm;58380;48.312;9.246;2024-02-16T09:13:12;47.12;38.17;61.36;;
1754;Laerm;58380;48.312;9.246;2024-02-16T09:16:13;44.83;39.27;59.01;;
1754;Laerm;58380;48.312;9.246;2024-02-16T09:19:13;48.00;40.07;62.76;;
1754;Laerm;58380;48.312;9.246;2024-02-16T09:22:14;48.19;40.20;64.36;;
1754;Laerm;58380;48.312;9.246;2024-02-16T09:25:15;49.21;41.86;57.84;;
1754;Laerm;58380;48.312;9.246;2024-02-16T09:28:15;47.34;40.09;58.48;;
1754;Laerm;58380;48.312;9.246;2024-02-16T09:31:16;64.80;39.76;92.73;;
1754;Laerm;58380;48.312;9.246;2024-02-16T09:34:16;48.73;41.62;62.92;;
1754;Laerm;58380;48.312;9.246;2024-02-16T09:37:17;49.29;40.22;61.27;;
1754;Laerm;58380;48.312;9.246;2024-02-16T09:40:17;47.62;38.37;58.27;;
1754;Laerm;58380;48.312;9.246;2024-02-16T09:43:28;45.82;39.93;59.52;;
1754;Laerm;58380;48.312;9.246;2024-02-16T09:46:30;47.39;38.63;59.41;;
1754;Laerm;58380;48.312;9.246;2024-02-16T09:49:33;48.82;40.60;58.57;;
1754;Laerm;58380;48.312;9.246;2024-02-16T09:52:35;47.62;40.77;65.44;;
1754;Laerm;58380;48.312;9.246;2024-02-16T09:55:36;48.76;41.27;65.70;;
1754;Laerm;58380;48.312;9.246;2024-02-16T09:58:36;47.60;40.81;63.22;;
1754;Laerm;58380;48.312;9.246;2024-02-16T10:01:37;49.87;41.11;77.77;;
1754;Laerm;58380;48.312;9.246;2024-02-16T10:04:37;48.66;40.87;59.79;;
1754;Laerm;58380;48.312;9.246;2024-02-16T10:07:38;46.47;39.51;57.44;;
1754;Laerm;58380;48.312;9.246;2024-02-16T10:10:38;49.26;42.60;70.61;;
1754;Laerm;58380;48.312;9.246;2024-02-16T10:13:39;48.60;41.14;62.84;;
1754;Laerm;58380;48.312;9.246;2024-02-16T10:16:39;49.25;42.54;61.61;;
1754;Laerm;58380;48.312;9.246;2024-02-16T10:19:39;48.18;41.43;60.84;;
1754;Laerm;58380;48.312;9.246;2024-02-16T10:22:40;46.88;38.80;62.76;;
1754;Laerm;58380;48.312;9.246;2024-02-16T10:25:41;49.57;39.97;70.17;;
1754;Laerm;58380;48.312;9.246;2024-02-16T10:28:41;45.65;38.41;55.31;;
1754;Laerm;58380;48.312;9.246;2024-02-16T10:31:44;45.32;35.54;60.97;;
1754;Laerm;58380;48.312;9.246;2024-02-16T10:34:47;48.10;38.67;56.97;;
1754;Laerm;58380;48.312;9.246;2024-02-16T10:37:50;47.27;37.36;59.97;;
1754;Laerm;58380;48.312;9.246;2024-02-16T10:40:51;46.28;34.66;62.89;;
1754;Laerm;58380;48.312;9.246;2024-02-16T10:43:53;46.48;38.50;64.32;;
1754;Laerm;58380;48.312;9.246;2024-02-16T10:46:58;45.27;36.28;58.62;;
1754;Laerm;58380;48.312;9.246;2024-02-16T10:50:01;46.35;36.61;58.85;;
1754;Laerm;58380;48.312;9.246;2024-02-16T10:53:19;50.01;40.34;72.89;;
1754;Laerm;58380;48.312;9.246;2024-02-16T10:56:34;48.72;37.16;61.93;;
1754;Laerm;58380;48.312;9.246;2024-02-16T10:59:43;47.84;36.86;63.59;;
1754;Laerm;58380;48.312;9.246;2024-02-16T11:02:52;47.81;36.49;60.56;;
1754;Laerm;58380;48.312;9.246;2024-02-16T11:05:54;46.47;35.36;60.15;;
1754;Laerm;58380;48.312;9.246;2024-02-16T11:08:54;48.58;38.77;72.94;;
1754;Laerm;58380;48.312;9.246;2024-02-16T11:12:00;46.42;36.27;58.52;;
1754;Laerm;58380;48.312;9.246;2024-02-16T11:15:00;47.12;35.62;60.82;;
1754;Laerm;58380;48.312;9.246;2024-02-16T11:18:02;47.17;37.85;57.76;;
1754;Laerm;58380;48.312;9.246;2024-02-16T11:21:03;46.72;37.74;53.90;;
1754;Laerm;58380;48.312;9.246;2024-02-16T11:24:07;46.20;35.11;58.55;;
1754;Laerm;58380;48.312;9.246;2024-02-16T11:27:10;47.35;37.35;56.31;;
1754;Laerm;58380;48.312;9.246;2024-02-16T11:30:11;47.37;39.55;70.95;;
1754;Laerm;58380;48.312;9.246;2024-02-16T11:33:12;72.95;37.73;101.95;;
1754;Laerm;58380;48.312;9.246;2024-02-16T11:36:12;45.92;37.27;59.02;;
1754;Laerm;58380;48.312;9.246;2024-02-16T11:39:13;43.78;35.55;57.45;;
1754;Laerm;58380;48.312;9.246;2024-02-16T11:42:19;44.98;35.21;56.05;;
1754;Laerm;58380;48.312;9.246;2024-02-16T11:45:19;41.82;34.68;54.63;;
1754;Laerm;58380;48.312;9.246;2024-02-16T11:48:22;46.27;34.88;63.97;;
1754;Laerm;58380;48.312;9.246;2024-02-16T11:51:23;45.64;37.01;59.29;;
1754;Laerm;58380;48.312;9.246;2024-02-16T11:54:23;42.66;35.41;52.12;;
1754;Laerm;58380;48.312;9.246;2024-02-16T11:57:24;43.78;33.79;52.15;;
1754;Laerm;58380;48.312;9.246;2024-02-16T12:00:24;44.87;37.07;52.28;;
1754;Laerm;58380;48.312;9.246;2024-02-16T12:03:26;48.96;38.77;64.49;;
1754;Laerm;58380;48.312;9.246;2024-02-16T12:06:29;50.73;38.27;72.95;;
1754;Laerm;58380;48.312;9.246;2024-02-16T12:09:30;43.96;33.21;56.20;;
1754;Laerm;58380;48.312;9.246;2024-02-16T12:12:33;46.73;34.69;61.74;;
1754;Laerm;58380;48.312;9.246;2024-02-16T12:15:33;45.18;36.83;55.60;;
1754;Laerm;58380;48.312;9.246;2024-02-16T12:18:34;48.25;37.47;58.66;;
1754;Laerm;58380;48.312;9.246;2024-02-16T12:21:34;48.43;34.43;63.81;;
1754;Laerm;58380;48.312;9.246;2024-02-16T12:24:35;43.86;33.39;55.60;;
1754;Laerm;58380;48.312;9.246;2024-02-16T12:27:35;45.81;36.75;64.49;;
1754;Laerm;58380;48.312;9.246;2024-02-16T12:30:36;46.31;38.30;64.08;;
1754;Laerm;58380;48.312;9.246;2024-02-16T12:33:37;46.14;37.15;63.58;;
1754;Laerm;58380;48.312;9.246;2024-02-16T12:36:41;46.92;38.47;60.66;;
1754;Laerm;58380;48.312;9.246;2024-02-16T12:39:42;45.00;38.20;58.88;;
1754;Laerm;58380;48.312;9.246;2024-02-16T12:42:43;47.36;39.70;61.40;;
1754;Laerm;58380;48.312;9.246;2024-02-16T12:45:44;46.53;37.19;61.52;;
1754;Laerm;58380;48.312;9.246;2024-02-16T12:48:45;47.52;38.37;61.44;;
1754;Laerm;58380;48.312;9.246;2024-02-16T12:51:46;46.54;37.18;59.32;;
1754;Laerm;58380;48.312;9.246;2024-02-16T12:54:48;44.98;35.75;62.12;;
1754;Laerm;58380;48.312;9.246;2024-02-16T12:57:50;52.19;41.64;71.68;;
1754;Laerm;58380;48.312;9.246;2024-02-16T13:00:53;43.93;33.14;63.67;;
1754;Laerm;58380;48.312;9.246;2024-02-16T13:03:54;43.80;33.15;72.66;;
1754;Laerm;58380;48.312;9.246;2024-02-16T13:06:54;45.18;35.22;61.91;;
1754;Laerm;58380;48.312;9.246;2024-02-16T13:09:55;47.42;40.41;57.58;;
1754;Laerm;58380;48.312;9.246;2024-02-16T13:12:55;47.93;40.18;63.24;;
1754;Laerm;58380;48.312;9.246;2024-02-16T13:15:55;45.04;37.79;56.63;;
1754;Laerm;58380;48.312;9.246;2024-02-16T13:18:58;47.26;39.18;59.04;;
1754;Laerm;58380;48.312;9.246;2024-02-16T13:21:59;46.43;38.06;56.49;;
1754;Laerm;58380;48.312;9.246;2024-02-16T13:24:59;46.83;38.53;58.60;;
1754;Laerm;58380;48.312;9.246;2024-02-16T13:28:00;47.35;36.42;71.72;;
1754;Laerm;58380;48.312;9.246;2024-02-16T13:31:00;44.73;35.30;58.50;;
1754;Laerm;58380;48.312;9.246;2024-02-16T13:34:01;42.90;34.43;61.29;;
1754;Laerm;58380;48.312;9.246;2024-02-16T13:37:01;45.51;35.70;59.13;;
1754;Laerm;58380;48.312;9.246;2024-02-16T13:40:02;45.51;35.10;61.40;;
1754;Laerm;58380;48.312;9.246;2024-02-16T13:43:07;50.45;35.69;79.49;;
1754;Laerm;58380;48.312;9.246;2024-02-16T13:46:08;47.32;35.04;59.20;;
1754;Laerm;58380;48.312;9.246;2024-02-16T13:49:08;49.80;38.89;61.76;;
1754;Laerm;58380;48.312;9.246;2024-02-16T13:52:09;47.24;34.86;59.40;;
1754;Laerm;58380;48.312;9.246;2024-02-16T13:55:10;47.86;35.44;61.34;;
1754;Laerm;58380;48.312;9.246;2024-02-16T13:58:12;48.53;34.75;71.46;;
1754;Laerm;58380;48.312;9.246;2024-02-16T14:01:12;44.99;35.45;56.57;;
1754;Laerm;58380;48.312;9.246;2024-02-16T14:04:14;47.13;40.09;56.87;;
1754;Laerm;58380;48.312;9.246;2024-02-16T14:07:14;46.11;39.60;57.39;;
1754;Laerm;58380;48.312;9.246;2024-02-16T14:10:15;47.48;40.20;56.29;;
1754;Laerm;58380;48.312;9.246;2024-02-16T14:13:15;47.58;38.78;58.69;;
1754;Laerm;58380;48.312;9.246;2024-02-16T14:16:16;47.22;38.00;58.49;;
1754;Laerm;58380;48.312;9.246;2024-02-16T14:19:16;47.47;40.65;55.91;;
1754;Laerm;58380;48.312;9.246;2024-02-16T14:22:17;44.70;38.54;51.89;;
1754;Laerm;58380;48.312;9.246;2024-02-16T14:25:17;43.81;35.13;57.55;;
1754;Laerm;58380;48.312;9.246;2024-02-16T14:28:19;42.54;34.25;50.61;;
1754;Laerm;58380;48.312;9.246;2024-02-16T14:31:19;50.03;34.66;67.05;;
1754;Laerm;58380;48.312;9.246;2024-02-16T14:34:20;43.63;35.99;55.05;;
1754;Laerm;58380;48.312;9.246;2024-02-16T14:37:20;44.49;36.09;56.64;;
1754;Laerm;58380;48.312;9.246;2024-02-16T14:40:21;44.80;36.38;56.90;;
1754;Laerm;58380;48.312;9.246;2024-02-16T14:43:21;42.71;32.28;56.43;;
1754;Laerm;58380;48.312;9.246;2024-02-16T14:46:26;42.83;34.47;57.81;;
1754;Laerm;58380;48.312;9.246;2024-02-16T14:49:27;43.31;37.61;56.38;;
1754;Laerm;58380;48.312;9.246;2024-02-16T14:52:31;46.02;37.76;61.82;;
1754;Laerm;58380;48.312;9.246;2024-02-16T14:55:31;45.88;35.03;55.83;;
1754;Laerm;58380;48.312;9.246;2024-02-16T14:58:32;44.88;35.40;64.32;;
1754;Laerm;58380;48.312;9.246;2024-02-16T15:01:33;45.83;36.64;60.61;;
1754;Laerm;58380;48.312;9.246;2024-02-16T15:04:33;44.19;35.41;57.82;;
1754;Laerm;58380;48.312;9.246;2024-02-16T15:07:34;57.98;37.60;88.88;;
1754;Laerm;58380;48.312;9.246;2024-02-16T15:10:35;58.25;37.70;88.29;;
1754;Laerm;58380;48.312;9.246;2024-02-16T15:13:35;45.00;37.63;59.66;;
1754;Laerm;58380;48.312;9.246;2024-02-16T15:16:37;45.86;36.73;59.99;;
1754;Laerm;58380;48.312;9.246;2024-02-16T15:19:38;43.54;34.10;61.04;;
1754;Laerm;58380;48.312;9.246;2024-02-16T15:22:38;43.05;33.39;55.04;;
1754;Laerm;58380;48.312;9.246;2024-02-16T15:25:40;43.62;33.51;55.23;;
1754;Laerm;58380;48.312;9.246;2024-02-16T15:28:41;45.79;37.76;55.49;;
1754;Laerm;58380;48.312;9.246;2024-02-16T15:31:41;46.02;38.52;63.10;;
1754;Laerm;58380;48.312;9.246;2024-02-16T15:34:42;49.53;36.62;63.23;;
1754;Laerm;58380;48.312;9.246;2024-02-16T15:37:46;45.60;34.03;60.09;;
1754;Laerm;58380;48.312;9.246;2024-02-16T15:40:47;44.97;33.79;66.71;;
1754;Laerm;58380;48.312;9.246;2024-02-16T15:43:47;48.84;35.55;80.65;;
1754;Laerm;58380;48.312;9.246;2024-02-16T15:46:48;43.52;35.74;56.20;;
1754;Laerm;58380;48.312;9.246;2024-02-16T15:49:48;44.82;34.99;58.65;;
1754;Laerm;58380;48.312;9.246;2024-02-16T15:52:48;45.57;36.82;57.55;;
1754;Laerm;58380;48.312;9.246;2024-02-16T15:55:49;49.94;35.85;69.40;;
1754;Laerm;58380;48.312;9.246;2024-02-16T15:58:49;41.75;33.45;53.83;;
1754;Laerm;58380;48.312;9.246;2024-02-16T16:01:51;44.56;34.80;58.42;;
1754;Laerm;58380;48.312;9.246;2024-02-16T16:04:52;42.81;33.84;53.85;;
1754;Laerm;58380;48.312;9.246;2024-02-16T16:07:53;45.31;33.93;54.86;;
1754;Laerm;58380;48.312;9.246;2024-02-16T16:10:54;44.14;36.73;52.77;;
1754;Laerm;58380;48.312;9.246;2024-02-16T16:13:56;44.45;35.69;60.01;;
1754;Laerm;58380;48.312;9.246;2024-02-16T16:16:56;45.81;35.60;54.33;;
1754;Laerm;58380;48.312;9.246;2024-02-16T16:19:57;47.12;35.58;76.22;;
1754;Laerm;58380;48.312;9.246;2024-02-16T16:22:57;42.92;34.58;56.25;;
1754;Laerm;58380;48.312;9.246;2024-02-16T16:25:58;44.65;33.56;61.46;;
1754;Laerm;58380;48.312;9.246;2024-02-16T16:28:58;44.42;35.85;59.12;;
1754;Laerm;58380;48.312;9.246;2024-02-16T16:31:59;47.42;35.08;64.60;;
1754;Laerm;58380;48.312;9.246;2024-02-16T16:35:03;43.12;33.16;60.36;;
1754;Laerm;58380;48.312;9.246;2024-02-16T16:38:04;46.66;36.88;55.81;;
1754;Laerm;58380;48.312;9.246;2024-02-16T16:41:08;46.44;37.28;57.24;;
1754;Laerm;58380;48.312;9.246;2024-02-16T16:44:09;43.67;35.84;56.76;;
1754;Laerm;58380;48.312;9.246;2024-02-16T16:47:11;43.46;36.12;52.75;;
1754;Laerm;58380;48.312;9.246;2024-02-16T16:50:16;44.29;36.44;51.37;;
1754;Laerm;58380;48.312;9.246;2024-02-16T16:53:19;43.77;34.87;56.23;;
1754;Laerm;58380;48.312;9.246;2024-02-16T16:56:21;44.05;36.59;57.20;;
1754;Laerm;58380;48.312;9.246;2024-02-16T16:59:21;47.52;37.71;60.61;;
1754;Laerm;58380;48.312;9.246;2024-02-16T17:02:21;43.52;36.92;50.38;;
1754;Laerm;58380;48.312;9.246;2024-02-16T17:05:22;45.53;38.35;50.87;;
1754;Laerm;58380;48.312;9.246;2024-02-16T17:08:22;43.51;36.45;52.49;;
1754;Laerm;58380;48.312;9.246;2024-02-16T17:11:23;42.47;33.94;50.41;;
1754;Laerm;58380;48.312;9.246;2024-02-16T17:14:23;44.16;34.98;58.28;;
1754;Laerm;58380;48.312;9.246;2024-02-16T17:17:24;44.46;35.84;59.13;;
1754;Laerm;58380;48.312;9.246;2024-02-16T17:20:26;44.08;34.72;52.39;;
1754;Laerm;58380;48.312;9.246;2024-02-16T17:23:27;43.73;33.91;55.13;;
1754;Laerm;58380;48.312;9.246;2024-02-16T17:26:28;44.88;35.36;56.69;;
1754;Laerm;58380;48.312;9.246;2024-02-16T17:29:30;42.48;33.62;50.24;;
1754;Laerm;58380;48.312;9.246;2024-02-16T17:32:30;41.59;32.39;49.03;;
1754;Laerm;58380;48.312;9.246;2024-02-16T17:35:31;42.15;34.50;49.37;;
1754;Laerm;58380;48.312;9.246;2024-02-16T17:38:31;43.26;36.71;53.42;;
1754;Laerm;58380;48.312;9.246;2024-02-16T17:41:32;41.51;32.61;49.73;;
1754;Laerm;58380;48.312;9.246;2024-02-16T17:44:33;40.56;32.85;47.28;;
1754;Laerm;58380;48.312;9.246;2024-02-16T17:47:34;43.21;34.67;52.12;;
1754;Laerm;58380;48.312;9.246;2024-02-16T17:50:35;40.91;33.92;48.70;;
1754;Laerm;58380;48.312;9.246;2024-02-16T17:53:35;43.72;35.43;49.30;;
1754;Laerm;58380;48.312;9.246;2024-02-16T17:56:35;39.68;31.46;47.16;;
1754;Laerm;58380;48.312;9.246;2024-02-16T17:59:36;42.27;32.42;50.23;;
1754;Laerm;58380;48.312;9.246;2024-02-16T18:02:37;42.88;33.57;50.88;;
1754;Laerm;58380;48.312;9.246;2024-02-16T18:05:38;41.31;33.70;48.93;;
1754;Laerm;58380;48.312;9.246;2024-02-16T18:08:38;42.46;33.06;54.08;;
1754;Laerm;58380;48.312;9.246;2024-02-16T18:11:39;41.54;33.64;50.04;;
1754;Laerm;58380;48.312;9.246;2024-02-16T18:14:39;50.23;32.92;70.28;;
1754;Laerm;58380;48.312;9.246;2024-02-16T18:17:40;42.52;32.46;49.36;;
1754;Laerm;58380;48.312;9.246;2024-02-16T18:20:40;39.22;31.48;49.42;;
1754;Laerm;58380;48.312;9.246;2024-02-16T18:23:41;42.84;34.50;52.43;;
1754;Laerm;58380;48.312;9.246;2024-02-16T18:26:47;40.99;35.09;52.56;;
1754;Laerm;58380;48.312;9.246;2024-02-16T18:29:48;45.84;34.79;56.19;;
1754;Laerm;58380;48.312;9.246;2024-02-16T18:32:48;41.66;34.27;47.86;;
1754;Laerm;58380;48.312;9.246;2024-02-16T18:35:49;40.91;33.17;47.55;;
1754;Laerm;58380;48.312;9.246;2024-02-16T18:38:50;41.55;34.97;50.92;;
1754;Laerm;58380;48.312;9.246;2024-02-16T18:41:51;41.65;34.67;48.68;;
1754;Laerm;58380;48.312;9.246;2024-02-16T18:44:51;43.36;33.94;50.36;;
1754;Laerm;58380;48.312;9.246;2024-02-16T18:47:52;44.27;36.12;52.87;;
1754;Laerm;58380;48.312;9.246;2024-02-16T18:50:53;43.89;36.90;52.38;;
1754;Laerm;58380;48.312;9.246;2024-02-16T18:53:54;43.59;35.18;51.19;;
1754;Laerm;58380;48.312;9.246;2024-02-16T18:56:54;41.19;34.09;48.73;;
1754;Laerm;58380;48.312;9.246;2024-02-16T18:59:55;41.73;32.93;50.38;;
1754;Laerm;58380;48.312;9.246;2024-02-16T19:02:55;45.55;36.43;58.13;;
1754;Laerm;58380;48.312;9.246;2024-02-16T19:05:57;41.10;33.57;52.93;;
1754;Laerm;58380;48.312;9.246;2024-02-16T19:08:57;42.78;34.66;52.81;;
1754;Laerm;58380;48.312;9.246;2024-02-16T19:11:58;41.29;33.13;49.41;;
1754;Laerm;58380;48.312;9.246;2024-02-16T19:14:58;42.50;34.97;50.61;;
1754;Laerm;58380;48.312;9.246;2024-02-16T19:18:00;42.12;33.45;50.14;;
1754;Laerm;58380;48.312;9.246;2024-02-16T19:21:01;41.59;33.19;48.29;;
1754;Laerm;58380;48.312;9.246;2024-02-16T19:24:02;43.80;36.02;51.72;;
1754;Laerm;58380;48.312;9.246;2024-02-16T19:27:04;42.11;34.15;48.64;;
1754;Laerm;58380;48.312;9.246;2024-02-16T19:30:06;41.74;33.76;49.83;;
1754;Laerm;58380;48.312;9.246;2024-02-16T19:33:06;42.47;32.74;54.40;;
1754;Laerm;58380;48.312;9.246;2024-02-16T19:36:08;41.08;32.48;48.43;;
1754;Laerm;58380;48.312;9.246;2024-02-16T19:39:09;41.41;35.01;49.17;;
1754;Laerm;58380;48.312;9.246;2024-02-16T19:42:15;44.32;32.59;51.15;;
1754;Laerm;58380;48.312;9.246;2024-02-16T19:45:15;40.31;32.96;50.12;;
1754;Laerm;58380;48.312;9.246;2024-02-16T19:48:18;42.57;32.27;49.49;;
1754;Laerm;58380;48.312;9.246;2024-02-16T19:51:19;40.60;32.70;48.46;;
1754;Laerm;58380;48.312;9.246;2024-02-16T19:54:22;41.58;32.30;52.34;;
1754;Laerm;58380;48.312;9.246;2024-02-16T19:57:22;42.08;35.52;49.25;;
1754;Laerm;58380;48.312;9.246;2024-02-16T20:00:23;40.44;34.37;46.06;;
1754;Laerm;58380;48.312;9.246;2024-02-16T20:03:23;41.04;32.97;48.90;;
1754;Laerm;58380;48.312;9.246;2024-02-16T20:06:24;43.18;34.19;49.27;;
1754;Laerm;58380;48.312;9.246;2024-02-16T20:09:28;41.61;34.02;53.45;;
1754;Laerm;58380;48.312;9.246;2024-02-16T20:12:28;42.58;35.01;49.91;;
1754;Laerm;58380;48.312;9.246;2024-02-16T20:15:29;43.67;33.90;53.28;;
1754;Laerm;58380;48.312;9.246;2024-02-16T20:18:30;42.42;34.14;49.99;;
1754;Laerm;58380;48.312;9.246;2024-02-16T20:21:38;40.32;32.99;47.50;;
1754;Laerm;58380;48.312;9.246;2024-02-16T20:24:38;45.53;37.23;56.16;;
1754;Laerm;58380;48.312;9.246;2024-02-16T20:27:39;42.58;33.22;50.24;;
1754;Laerm;58380;48.312;9.246;2024-02-16T20:30:40;38.83;32.11;46.46;;
1754;Laerm;58380;48.312;9.246;2024-02-16T20:33:40;41.30;32.72;48.88;;
1754;Laerm;58380;48.312;9.246;2024-02-16T20:36:41;40.51;33.15;49.16;;
1754;Laerm;58380;48.312;9.246;2024-02-16T20:39:43;42.19;33.08;50.59;;
1754;Laerm;58380;48.312;9.246;2024-02-16T20:42:43;41.95;32.34;49.67;;
1754;Laerm;58380;48.312;9.246;2024-02-16T20:45:45;39.59;32.25;49.59;;
1754;Laerm;58380;48.312;9.246;2024-02-16T20:48:46;42.97;32.61;55.11;;
1754;Laerm;58380;48.312;9.246;2024-02-16T20:51:48;39.55;32.39;45.80;;
1754;Laerm;58380;48.312;9.246;2024-02-16T20:54:49;38.88;32.37;45.54;;
1754;Laerm;58380;48.312;9.246;2024-02-16T20:57:49;40.24;32.94;46.62;;
1754;Laerm;58380;48.312;9.246;2024-02-16T21:00:49;42.35;33.40;50.32;;
1754;Laerm;58380;48.312;9.246;2024-02-16T21:03:50;40.28;32.11;46.92;;
1754;Laerm;58380;48.312;9.246;2024-02-16T21:06:50;38.87;33.04;52.06;;
1754;Laerm;58380;48.312;9.246;2024-02-16T21:09:53;38.28;32.76;47.10;;
1754;Laerm;58380;48.312;9.246;2024-02-16T21:12:53;38.65;33.19;46.49;;
1754;Laerm;58380;48.312;9.246;2024-02-16T21:15:54;42.35;34.67;51.78;;
1754;Laerm;58380;48.312;9.246;2024-02-16T21:18:54;38.96;34.25;44.57;;
1754;Laerm;58380;48.312;9.246;2024-02-16T21:21:54;41.47;34.70;49.07;;
1754;Laerm;58380;48.312;9.246;2024-02-16T21:24:55;42.72;33.96;50.04;;
1754;Laerm;58380;48.312;9.246;2024-02-16T21:27:55;42.23;32.68;49.79;;
1754;Laerm;58380;48.312;9.246;2024-02-16T21:30:56;40.46;31.62;50.25;;
1754;Laerm;58380;48.312;9.246;2024-02-16T21:33:56;41.91;34.17;48.05;;
1754;Laerm;58380;48.312;9.246;2024-02-16T21:36:56;41.21;34.52;47.70;;
1754;Laerm;58380;48.312;9.246;2024-02-16T21:39:58;42.67;35.03;51.48;;
1754;Laerm;58380;48.312;9.246;2024-02-16T21:42:58;40.76;32.42;49.57;;
1754;Laerm;58380;48.312;9.246;2024-02-16T21:45:58;43.37;35.28;51.32;;
1754;Laerm;58380;48.312;9.246;2024-02-16T21:49:03;43.59;34.78;52.53;;
1754;Laerm;58380;48.312;9.246;2024-02-16T21:52:04;40.86;32.43;50.32;;
1754;Laerm;58380;48.312;9.246;2024-02-16T21:55:05;37.63;31.28;47.62;;
1754;Laerm;58380;48.312;9.246;2024-02-16T21:58:05;40.64;32.85;48.94;;
1754;Laerm;58380;48.312;9.246;2024-02-16T22:01:06;40.47;32.99;47.71;;
1754;Laerm;58380;48.312;9.246;2024-02-16T22:04:06;40.35;32.48;47.41;;
1754;Laerm;58380;48.312;9.246;2024-02-16T22:07:07;36.78;32.00;44.71;;
1754;Laerm;58380;48.312;9.246;2024-02-16T22:10:08;36.55;32.45;56.68;;
1754;Laerm;58380;48.312;9.246;2024-02-16T22:13:08;37.75;32.76;49.85;;
1754;Laerm;58380;48.312;9.246;2024-02-16T22:16:08;40.89;33.31;48.27;;
1754;Laerm;58380;48.312;9.246;2024-02-16T22:19:09;37.82;33.17;52.73;;
1754;Laerm;58380;48.312;9.246;2024-02-16T22:22:09;42.13;33.67;56.76;;
1754;Laerm;58380;48.312;9.246;2024-02-16T22:25:10;40.18;31.87;51.84;;
1754;Laerm;58380;48.312;9.246;2024-02-16T22:28:10;40.72;31.57;52.34;;
1754;Laerm;58380;48.312;9.246;2024-02-16T22:31:11;41.87;32.25;53.95;;
1754;Laerm;58380;48.312;9.246;2024-02-16T22:34:11;41.18;34.48;48.54;;
1754;Laerm;58380;48.312;9.246;2024-02-16T22:37:12;40.64;32.81;48.31;;
1754;Laerm;58380;48.312;9.246;2024-02-16T22:40:12;40.04;33.46;48.94;;
1754;Laerm;58380;48.312;9.246;2024-02-16T22:43:12;36.48;31.80;48.00;;
1754;Laerm;58380;48.312;9.246;2024-02-16T22:46:13;40.23;31.95;49.68;;
1754;Laerm;58380;48.312;9.246;2024-02-16T22:49:13;39.00;32.57;45.97;;
1754;Laerm;58380;48.312;9.246;2024-02-16T22:52:13;37.88;31.57;45.42;;
1754;Laerm;58380;48.312;9.246;2024-02-16T22:55:14;39.73;32.88;56.91;;
